sensor_id;sensor_type;location;lat;lon;timestamp;temperature;humidity
3202;DHT22;34843;48.744;8.958;2023-10-31T00:01:11;11.10;99.90
3202;DHT22;34843;48.744;8.958;2023-10-31T00:03:36;11.10;99.90
3202;DHT22;34843;48.744;8.958;2023-10-31T00:06:02;11.10;99.90
3202;DHT22;34843;48.744;8.958;2023-10-31T00:08:27;11.10;99.90
3202;DHT22;34843;48.744;8.958;2023-10-31T00:10:53;11.00;99.90
3202;DHT22;34843;48.744;8.958;2023-10-31T00:15:44;10.90;99.90
3202;DHT22;34843;48.744;8.958;2023-10-31T00:18:10;10.80;99.90
3202;DHT22;34843;48.744;8.958;2023-10-31T00:20:35;10.80;99.90
3202;DHT22;34843;48.744;8.958;2023-10-31T00:23:01;10.80;99.90
3202;DHT22;34843;48.744;8.958;2023-10-31T00:25:26;10.70;99.90
3202;DHT22;34843;48.744;8.958;2023-10-31T00:27:52;10.70;99.90
3202;DHT22;34843;48.744;8.958;2023-10-31T00:30:17;10.70;99.90
3202;DHT22;34843;48.744;8.958;2023-10-31T00:32:43;10.70;99.90
3202;DHT22;34843;48.744;8.958;2023-10-31T00:35:08;10.60;99.90
3202;DHT22;34843;48.744;8.958;2023-10-31T00:37:34;10.50;99.90
3202;DHT22;34843;48.744;8.958;2023-10-31T00:39:59;10.50;99.90
3202;DHT22;34843;48.744;8.958;2023-10-31T00:42:25;10.40;99.90
3202;DHT22;34843;48.744;8.958;2023-10-31T00:44:50;10.30;99.90
3202;DHT22;34843;48.744;8.958;2023-10-31T00:47:16;10.30;99.90
3202;DHT22;34843;48.744;8.958;2023-10-31T00:49:43;10.20;99.90
3202;DHT22;34843;48.744;8.958;2023-10-31T00:52:08;10.20;99.90
3202;DHT22;34843;48.744;8.958;2023-10-31T00:54:34;10.10;99.90
3202;DHT22;34843;48.744;8.958;2023-10-31T00:56:59;10.10;99.90
3202;DHT22;34843;48.744;8.958;2023-10-31T00:59:25;10.10;99.90
3202;DHT22;34843;48.744;8.958;2023-10-31T01:01:50;10.10;99.90
3202;DHT22;34843;48.744;8.958;2023-10-31T01:04:16;10.00;99.90
3202;DHT22;34843;48.744;8.958;2023-10-31T01:06:42;9.90;99.90
3202;DHT22;34843;48.744;8.958;2023-10-31T01:09:08;9.80;99.90
3202;DHT22;34843;48.744;8.958;2023-10-31T01:11:34;9.70;99.90
3202;DHT22;34843;48.744;8.958;2023-10-31T01:14:00;9.60;99.90
3202;DHT22;34843;48.744;8.958;2023-10-31T01:16:25;9.60;99.90
3202;DHT22;34843;48.744;8.958;2023-10-31T01:18:51;9.50;99.90
3202;DHT22;34843;48.744;8.958;2023-10-31T01:21:16;9.40;99.90
3202;DHT22;34843;48.744;8.958;2023-10-31T01:23:42;9.30;99.90
3202;DHT22;34843;48.744;8.958;2023-10-31T01:26:08;9.20;99.90
3202;DHT22;34843;48.744;8.958;2023-10-31T01:28:34;9.20;99.90
3202;DHT22;34843;48.744;8.958;2023-10-31T01:30:59;9.10;99.90
3202;DHT22;34843;48.744;8.958;2023-10-31T01:33:25;9.10;99.90
3202;DHT22;34843;48.744;8.958;2023-10-31T01:35:51;9.10;99.90
3202;DHT22;34843;48.744;8.958;2023-10-31T01:38:16;9.20;99.90
3202;DHT22;34843;48.744;8.958;2023-10-31T01:40:42;9.30;99.90
3202;DHT22;34843;48.744;8.958;2023-10-31T01:43:07;9.40;99.90
3202;DHT22;34843;48.744;8.958;2023-10-31T01:45:33;9.50;99.90
3202;DHT22;34843;48.744;8.958;2023-10-31T01:47:59;9.60;99.90
3202;DHT22;34843;48.744;8.958;2023-10-31T01:50:25;9.60;99.90
3202;DHT22;34843;48.744;8.958;2023-10-31T01:52:51;9.70;99.90
3202;DHT22;34843;48.744;8.958;2023-10-31T01:55:18;9.70;99.90
3202;DHT22;34843;48.744;8.958;2023-10-31T01:57:45;9.70;99.90
3202;DHT22;34843;48.744;8.958;2023-10-31T02:00:13;9.70;99.90
3202;DHT22;34843;48.744;8.958;2023-10-31T02:02:40;9.70;99.90
3202;DHT22;34843;48.744;8.958;2023-10-31T02:05:08;9.70;99.90
3202;DHT22;34843;48.744;8.958;2023-10-31T02:07:33;9.60;99.90
3202;DHT22;34843;48.744;8.958;2023-10-31T02:09:59;9.60;99.90
3202;DHT22;34843;48.744;8.958;2023-10-31T02:12:35;9.70;99.90
3202;DHT22;34843;48.744;8.958;2023-10-31T02:15:01;9.80;99.90
3202;DHT22;34843;48.744;8.958;2023-10-31T02:17:27;9.80;99.90
3202;DHT22;34843;48.744;8.958;2023-10-31T02:19:53;9.80;99.90
3202;DHT22;34843;48.744;8.958;2023-10-31T02:22:18;9.90;99.90
3202;DHT22;34843;48.744;8.958;2023-10-31T02:24:44;10.00;99.90
3202;DHT22;34843;48.744;8.958;2023-10-31T02:27:09;10.00;99.90
3202;DHT22;34843;48.744;8.958;2023-10-31T02:29:35;10.10;99.90
3202;DHT22;34843;48.744;8.958;2023-10-31T02:32:00;10.00;99.90
3202;DHT22;34843;48.744;8.958;2023-10-31T02:34:26;9.90;99.90
3202;DHT22;34843;48.744;8.958;2023-10-31T02:36:51;9.90;99.90
3202;DHT22;34843;48.744;8.958;2023-10-31T02:39:17;9.90;99.90
3202;DHT22;34843;48.744;8.958;2023-10-31T02:41:43;9.90;99.90
3202;DHT22;34843;48.744;8.958;2023-10-31T02:44:09;9.80;99.90
3202;DHT22;34843;48.744;8.958;2023-10-31T02:46:38;9.80;99.90
3202;DHT22;34843;48.744;8.958;2023-10-31T02:49:03;9.70;99.90
3202;DHT22;34843;48.744;8.958;2023-10-31T02:51:29;9.80;99.90
3202;DHT22;34843;48.744;8.958;2023-10-31T02:53:55;9.80;99.90
3202;DHT22;34843;48.744;8.958;2023-10-31T02:56:20;9.70;99.90
3202;DHT22;34843;48.744;8.958;2023-10-31T02:58:46;9.70;99.90
3202;DHT22;34843;48.744;8.958;2023-10-31T03:01:12;9.60;99.90
3202;DHT22;34843;48.744;8.958;2023-10-31T03:03:37;9.50;99.90
3202;DHT22;34843;48.744;8.958;2023-10-31T03:06:04;9.50;99.90
3202;DHT22;34843;48.744;8.958;2023-10-31T03:08:30;9.50;99.90
3202;DHT22;34843;48.744;8.958;2023-10-31T03:10:56;9.40;99.90
3202;DHT22;34843;48.744;8.958;2023-10-31T03:13:21;9.30;99.90
3202;DHT22;34843;48.744;8.958;2023-10-31T03:15:47;9.30;99.90
3202;DHT22;34843;48.744;8.958;2023-10-31T03:18:13;9.30;99.90
3202;DHT22;34843;48.744;8.958;2023-10-31T03:20:40;9.30;99.90
3202;DHT22;34843;48.744;8.958;2023-10-31T03:23:06;9.20;99.90
3202;DHT22;34843;48.744;8.958;2023-10-31T03:25:31;9.20;99.90
3202;DHT22;34843;48.744;8.958;2023-10-31T03:27:57;9.20;99.90
3202;DHT22;34843;48.744;8.958;2023-10-31T03:30:22;9.20;99.90
3202;DHT22;34843;48.744;8.958;2023-10-31T03:32:48;9.20;99.90
3202;DHT22;34843;48.744;8.958;2023-10-31T03:35:14;9.20;99.90
3202;DHT22;34843;48.744;8.958;2023-10-31T03:37:39;9.20;99.90
3202;DHT22;34843;48.744;8.958;2023-10-31T03:40:08;9.30;99.90
3202;DHT22;34843;48.744;8.958;2023-10-31T03:42:34;9.30;99.90
3202;DHT22;34843;48.744;8.958;2023-10-31T03:44:59;9.40;99.90
3202;DHT22;34843;48.744;8.958;2023-10-31T03:47:25;9.40;99.90
3202;DHT22;34843;48.744;8.958;2023-10-31T03:49:50;9.40;99.90
3202;DHT22;34843;48.744;8.958;2023-10-31T03:52:16;9.40;99.90
3202;DHT22;34843;48.744;8.958;2023-10-31T03:54:41;9.40;99.90
3202;DHT22;34843;48.744;8.958;2023-10-31T03:57:07;9.40;99.90
3202;DHT22;34843;48.744;8.958;2023-10-31T03:59:32;9.30;99.90
3202;DHT22;34843;48.744;8.958;2023-10-31T04:01:58;9.30;99.90
3202;DHT22;34843;48.744;8.958;2023-10-31T04:04:23;9.30;99.90
3202;DHT22;34843;48.744;8.958;2023-10-31T04:06:49;9.30;99.90
3202;DHT22;34843;48.744;8.958;2023-10-31T04:09:14;9.30;99.90
3202;DHT22;34843;48.744;8.958;2023-10-31T04:11:40;9.30;99.90
3202;DHT22;34843;48.744;8.958;2023-10-31T04:14:06;9.30;99.90
3202;DHT22;34843;48.744;8.958;2023-10-31T04:16:32;9.20;99.90
3202;DHT22;34843;48.744;8.958;2023-10-31T04:18:57;9.20;99.90
3202;DHT22;34843;48.744;8.958;2023-10-31T04:21:23;9.20;99.90
3202;DHT22;34843;48.744;8.958;2023-10-31T04:23:48;9.20;99.90
3202;DHT22;34843;48.744;8.958;2023-10-31T04:26:14;9.10;99.90
3202;DHT22;34843;48.744;8.958;2023-10-31T04:28:41;9.10;99.90
3202;DHT22;34843;48.744;8.958;2023-10-31T04:31:06;9.10;99.90
3202;DHT22;34843;48.744;8.958;2023-10-31T04:33:32;9.10;99.90
3202;DHT22;34843;48.744;8.958;2023-10-31T04:35:57;9.10;99.90
3202;DHT22;34843;48.744;8.958;2023-10-31T04:38:23;9.20;99.90
3202;DHT22;34843;48.744;8.958;2023-10-31T04:40:48;9.20;99.90
3202;DHT22;34843;48.744;8.958;2023-10-31T04:43:14;9.20;99.90
3202;DHT22;34843;48.744;8.958;2023-10-31T04:45:39;9.20;99.90
3202;DHT22;34843;48.744;8.958;2023-10-31T04:48:05;9.30;99.90
3202;DHT22;34843;48.744;8.958;2023-10-31T04:50:30;9.20;99.90
3202;DHT22;34843;48.744;8.958;2023-10-31T04:52:56;9.10;99.90
3202;DHT22;34843;48.744;8.958;2023-10-31T04:55:21;9.10;99.90
3202;DHT22;34843;48.744;8.958;2023-10-31T04:57:47;9.00;99.90
3202;DHT22;34843;48.744;8.958;2023-10-31T05:00:12;9.00;99.90
3202;DHT22;34843;48.744;8.958;2023-10-31T05:02:38;8.90;99.90
3202;DHT22;34843;48.744;8.958;2023-10-31T05:05:04;8.90;99.90
3202;DHT22;34843;48.744;8.958;2023-10-31T05:07:29;9.00;99.90
3202;DHT22;34843;48.744;8.958;2023-10-31T05:09:55;9.00;99.90
3202;DHT22;34843;48.744;8.958;2023-10-31T05:12:21;8.90;99.90
3202;DHT22;34843;48.744;8.958;2023-10-31T05:14:46;8.90;99.90
3202;DHT22;34843;48.744;8.958;2023-10-31T05:17:12;8.90;99.90
3202;DHT22;34843;48.744;8.958;2023-10-31T05:19:37;8.80;99.90
3202;DHT22;34843;48.744;8.958;2023-10-31T05:22:03;8.80;99.90
3202;DHT22;34843;48.744;8.958;2023-10-31T05:24:28;8.70;99.90
3202;DHT22;34843;48.744;8.958;2023-10-31T05:26:54;8.70;99.90
3202;DHT22;34843;48.744;8.958;2023-10-31T05:29:19;8.60;99.90
3202;DHT22;34843;48.744;8.958;2023-10-31T05:31:45;8.60;99.90
3202;DHT22;34843;48.744;8.958;2023-10-31T05:34:10;8.50;99.90
3202;DHT22;34843;48.744;8.958;2023-10-31T05:36:36;8.50;99.90
3202;DHT22;34843;48.744;8.958;2023-10-31T05:39:01;8.40;99.90
3202;DHT22;34843;48.744;8.958;2023-10-31T05:41:27;8.40;99.90
3202;DHT22;34843;48.744;8.958;2023-10-31T05:43:52;8.40;99.90
3202;DHT22;34843;48.744;8.958;2023-10-31T05:46:18;8.30;99.90
3202;DHT22;34843;48.744;8.958;2023-10-31T05:48:45;8.30;99.90
3202;DHT22;34843;48.744;8.958;2023-10-31T05:51:16;8.30;99.90
3202;DHT22;34843;48.744;8.958;2023-10-31T05:53:42;8.30;99.90
3202;DHT22;34843;48.744;8.958;2023-10-31T05:56:09;8.30;99.90
3202;DHT22;34843;48.744;8.958;2023-10-31T05:58:36;8.30;99.90
3202;DHT22;34843;48.744;8.958;2023-10-31T06:01:01;8.30;99.90
3202;DHT22;34843;48.744;8.958;2023-10-31T06:03:27;8.40;99.90
3202;DHT22;34843;48.744;8.958;2023-10-31T06:05:52;8.60;99.90
3202;DHT22;34843;48.744;8.958;2023-10-31T06:08:18;8.70;99.90
3202;DHT22;34843;48.744;8.958;2023-10-31T06:10:43;8.70;99.90
3202;DHT22;34843;48.744;8.958;2023-10-31T06:13:09;8.80;99.90
3202;DHT22;34843;48.744;8.958;2023-10-31T06:15:35;8.80;99.90
3202;DHT22;34843;48.744;8.958;2023-10-31T06:18:00;8.90;99.90
3202;DHT22;34843;48.744;8.958;2023-10-31T06:20:26;8.90;99.90
3202;DHT22;34843;48.744;8.958;2023-10-31T06:22:51;8.80;99.90
3202;DHT22;34843;48.744;8.958;2023-10-31T06:25:17;8.80;99.90
3202;DHT22;34843;48.744;8.958;2023-10-31T06:27:42;8.80;99.90
3202;DHT22;34843;48.744;8.958;2023-10-31T06:30:08;8.70;99.90
3202;DHT22;34843;48.744;8.958;2023-10-31T06:32:34;8.70;99.90
3202;DHT22;34843;48.744;8.958;2023-10-31T06:35:00;8.60;99.90
3202;DHT22;34843;48.744;8.958;2023-10-31T06:37:25;8.60;99.90
3202;DHT22;34843;48.744;8.958;2023-10-31T06:39:51;8.60;99.90
3202;DHT22;34843;48.744;8.958;2023-10-31T06:42:16;8.60;99.90
3202;DHT22;34843;48.744;8.958;2023-10-31T06:44:42;8.70;99.90
3202;DHT22;34843;48.744;8.958;2023-10-31T06:47:07;8.70;99.90
3202;DHT22;34843;48.744;8.958;2023-10-31T06:49:33;8.80;99.90
3202;DHT22;34843;48.744;8.958;2023-10-31T06:51:58;8.90;99.90
3202;DHT22;34843;48.744;8.958;2023-10-31T06:54:24;9.00;99.90
3202;DHT22;34843;48.744;8.958;2023-10-31T06:56:49;9.10;99.90
3202;DHT22;34843;48.744;8.958;2023-10-31T06:59:15;9.10;99.90
3202;DHT22;34843;48.744;8.958;2023-10-31T07:01:40;9.20;99.90
3202;DHT22;34843;48.744;8.958;2023-10-31T07:04:06;9.10;99.90
3202;DHT22;34843;48.744;8.958;2023-10-31T07:06:32;9.20;99.90
3202;DHT22;34843;48.744;8.958;2023-10-31T07:08:57;9.30;99.90
3202;DHT22;34843;48.744;8.958;2023-10-31T07:11:25;9.40;99.90
3202;DHT22;34843;48.744;8.958;2023-10-31T07:13:51;9.50;99.90
3202;DHT22;34843;48.744;8.958;2023-10-31T07:16:16;9.60;99.90
3202;DHT22;34843;48.744;8.958;2023-10-31T07:18:42;9.70;99.90
3202;DHT22;34843;48.744;8.958;2023-10-31T07:21:07;9.80;99.90
3202;DHT22;34843;48.744;8.958;2023-10-31T07:23:33;9.90;99.90
3202;DHT22;34843;48.744;8.958;2023-10-31T07:25:58;9.90;99.90
3202;DHT22;34843;48.744;8.958;2023-10-31T07:28:24;10.00;99.90
3202;DHT22;34843;48.744;8.958;2023-10-31T07:30:49;10.40;99.90
3202;DHT22;34843;48.744;8.958;2023-10-31T07:33:15;10.10;99.90
3202;DHT22;34843;48.744;8.958;2023-10-31T07:35:41;10.20;99.90
3202;DHT22;34843;48.744;8.958;2023-10-31T07:38:06;10.30;99.90
3202;DHT22;34843;48.744;8.958;2023-10-31T07:40:33;10.40;99.90
3202;DHT22;34843;48.744;8.958;2023-10-31T07:42:58;11.40;99.90
3202;DHT22;34843;48.744;8.958;2023-10-31T07:45:24;10.50;99.90
3202;DHT22;34843;48.744;8.958;2023-10-31T07:47:50;10.60;99.90
3202;DHT22;34843;48.744;8.958;2023-10-31T07:50:15;10.80;99.90
3202;DHT22;34843;48.744;8.958;2023-10-31T07:52:41;10.90;99.90
3202;DHT22;34843;48.744;8.958;2023-10-31T07:55:09;11.00;99.90
3202;DHT22;34843;48.744;8.958;2023-10-31T07:57:36;11.10;99.90
3202;DHT22;34843;48.744;8.958;2023-10-31T08:00:02;11.20;99.90
3202;DHT22;34843;48.744;8.958;2023-10-31T08:02:28;11.30;99.90
3202;DHT22;34843;48.744;8.958;2023-10-31T08:04:53;11.50;99.90
3202;DHT22;34843;48.744;8.958;2023-10-31T08:07:19;11.50;99.90
3202;DHT22;34843;48.744;8.958;2023-10-31T08:09:44;11.60;99.90
3202;DHT22;34843;48.744;8.958;2023-10-31T08:12:10;11.70;99.90
3202;DHT22;34843;48.744;8.958;2023-10-31T08:14:35;11.70;99.90
3202;DHT22;34843;48.744;8.958;2023-10-31T08:17:01;11.80;99.90
3202;DHT22;34843;48.744;8.958;2023-10-31T08:19:27;11.90;99.90
3202;DHT22;34843;48.744;8.958;2023-10-31T08:21:53;11.90;99.90
3202;DHT22;34843;48.744;8.958;2023-10-31T08:24:18;11.90;99.90
3202;DHT22;34843;48.744;8.958;2023-10-31T08:26:44;11.90;99.90
3202;DHT22;34843;48.744;8.958;2023-10-31T08:29:09;11.80;99.90
3202;DHT22;34843;48.744;8.958;2023-10-31T08:31:36;11.80;99.90
3202;DHT22;34843;48.744;8.958;2023-10-31T08:34:01;11.80;99.90
3202;DHT22;34843;48.744;8.958;2023-10-31T08:36:27;11.80;99.90
3202;DHT22;34843;48.744;8.958;2023-10-31T08:38:53;11.90;99.90
3202;DHT22;34843;48.744;8.958;2023-10-31T08:41:19;11.80;99.90
3202;DHT22;34843;48.744;8.958;2023-10-31T08:43:46;11.90;99.90
3202;DHT22;34843;48.744;8.958;2023-10-31T08:46:12;11.90;99.90
3202;DHT22;34843;48.744;8.958;2023-10-31T08:48:38;12.00;99.90
3202;DHT22;34843;48.744;8.958;2023-10-31T08:51:04;12.00;99.90
3202;DHT22;34843;48.744;8.958;2023-10-31T08:53:29;12.00;99.90
3202;DHT22;34843;48.744;8.958;2023-10-31T08:55:55;12.10;99.90
3202;DHT22;34843;48.744;8.958;2023-10-31T08:58:21;12.10;99.90
3202;DHT22;34843;48.744;8.958;2023-10-31T09:00:47;12.20;99.90
3202;DHT22;34843;48.744;8.958;2023-10-31T09:03:12;12.30;99.90
3202;DHT22;34843;48.744;8.958;2023-10-31T09:05:38;12.40;99.90
3202;DHT22;34843;48.744;8.958;2023-10-31T09:08:04;12.40;99.90
3202;DHT22;34843;48.744;8.958;2023-10-31T09:10:30;12.40;99.90
3202;DHT22;34843;48.744;8.958;2023-10-31T09:12:56;12.50;99.90
3202;DHT22;34843;48.744;8.958;2023-10-31T09:15:21;12.60;99.90
3202;DHT22;34843;48.744;8.958;2023-10-31T09:17:47;12.70;99.90
3202;DHT22;34843;48.744;8.958;2023-10-31T09:20:13;12.80;99.90
3202;DHT22;34843;48.744;8.958;2023-10-31T09:22:38;12.80;99.90
3202;DHT22;34843;48.744;8.958;2023-10-31T09:25:04;12.90;99.90
3202;DHT22;34843;48.744;8.958;2023-10-31T09:27:30;12.90;99.90
3202;DHT22;34843;48.744;8.958;2023-10-31T09:29:55;13.00;99.90
3202;DHT22;34843;48.744;8.958;2023-10-31T09:32:21;13.00;99.90
3202;DHT22;34843;48.744;8.958;2023-10-31T09:34:46;13.00;99.90
3202;DHT22;34843;48.744;8.958;2023-10-31T09:37:12;12.90;99.90
3202;DHT22;34843;48.744;8.958;2023-10-31T09:39:37;12.90;99.90
3202;DHT22;34843;48.744;8.958;2023-10-31T09:42:03;12.80;99.90
3202;DHT22;34843;48.744;8.958;2023-10-31T09:44:29;12.90;99.90
3202;DHT22;34843;48.744;8.958;2023-10-31T09:46:55;13.00;99.90
3202;DHT22;34843;48.744;8.958;2023-10-31T09:49:22;13.10;99.90
3202;DHT22;34843;48.744;8.958;2023-10-31T09:51:48;13.00;99.90
3202;DHT22;34843;48.744;8.958;2023-10-31T09:54:17;12.90;99.90
3202;DHT22;34843;48.744;8.958;2023-10-31T09:56:43;12.70;99.90
3202;DHT22;34843;48.744;8.958;2023-10-31T09:59:09;12.70;99.90
3202;DHT22;34843;48.744;8.958;2023-10-31T10:01:34;12.70;99.90
3202;DHT22;34843;48.744;8.958;2023-10-31T10:04:00;12.60;99.90
3202;DHT22;34843;48.744;8.958;2023-10-31T10:06:26;12.60;99.90
3202;DHT22;34843;48.744;8.958;2023-10-31T10:08:52;12.70;99.90
3202;DHT22;34843;48.744;8.958;2023-10-31T10:11:17;12.70;99.90
3202;DHT22;34843;48.744;8.958;2023-10-31T10:13:43;12.90;99.90
3202;DHT22;34843;48.744;8.958;2023-10-31T10:16:09;13.20;99.90
3202;DHT22;34843;48.744;8.958;2023-10-31T10:18:35;13.40;99.90
3202;DHT22;34843;48.744;8.958;2023-10-31T10:21:04;13.30;99.90
3202;DHT22;34843;48.744;8.958;2023-10-31T10:23:31;13.30;99.90
3202;DHT22;34843;48.744;8.958;2023-10-31T10:25:58;13.40;99.90
3202;DHT22;34843;48.744;8.958;2023-10-31T10:28:25;13.40;99.90
3202;DHT22;34843;48.744;8.958;2023-10-31T10:30:51;13.40;99.90
3202;DHT22;34843;48.744;8.958;2023-10-31T10:33:18;13.50;99.90
3202;DHT22;34843;48.744;8.958;2023-10-31T10:35:44;13.50;99.90
3202;DHT22;34843;48.744;8.958;2023-10-31T10:38:15;13.40;99.90
3202;DHT22;34843;48.744;8.958;2023-10-31T10:40:42;13.40;99.90
3202;DHT22;34843;48.744;8.958;2023-10-31T10:43:20;13.60;99.90
3202;DHT22;34843;48.744;8.958;2023-10-31T10:45:46;13.70;99.90
3202;DHT22;34843;48.744;8.958;2023-10-31T10:48:15;13.60;99.90
3202;DHT22;34843;48.744;8.958;2023-10-31T10:50:43;13.60;99.90
3202;DHT22;34843;48.744;8.958;2023-10-31T10:53:16;13.60;99.90
3202;DHT22;34843;48.744;8.958;2023-10-31T10:55:47;13.60;99.90
3202;DHT22;34843;48.744;8.958;2023-10-31T10:58:26;13.60;99.90
3202;DHT22;34843;48.744;8.958;2023-10-31T11:00:53;13.60;99.90
3202;DHT22;34843;48.744;8.958;2023-10-31T11:03:22;13.70;99.90
3202;DHT22;34843;48.744;8.958;2023-10-31T11:05:49;13.80;99.90
3202;DHT22;34843;48.744;8.958;2023-10-31T11:08:16;13.90;99.90
3202;DHT22;34843;48.744;8.958;2023-10-31T11:10:42;13.90;99.90
3202;DHT22;34843;48.744;8.958;2023-10-31T11:13:08;14.00;99.90
3202;DHT22;34843;48.744;8.958;2023-10-31T11:15:34;14.10;99.90
3202;DHT22;34843;48.744;8.958;2023-10-31T11:18:01;14.10;99.90
3202;DHT22;34843;48.744;8.958;2023-10-31T11:20:28;14.20;99.90
3202;DHT22;34843;48.744;8.958;2023-10-31T11:22:55;14.50;99.90
3202;DHT22;34843;48.744;8.958;2023-10-31T11:25:25;14.70;99.90
3202;DHT22;34843;48.744;8.958;2023-10-31T11:27:51;14.80;99.90
3202;DHT22;34843;48.744;8.958;2023-10-31T11:30:21;15.00;99.90
3202;DHT22;34843;48.744;8.958;2023-10-31T11:32:48;15.10;99.90
3202;DHT22;34843;48.744;8.958;2023-10-31T11:35:16;15.10;99.90
3202;DHT22;34843;48.744;8.958;2023-10-31T11:37:43;15.10;99.90
3202;DHT22;34843;48.744;8.958;2023-10-31T11:40:21;14.90;99.90
3202;DHT22;34843;48.744;8.958;2023-10-31T11:42:49;14.70;99.90
3202;DHT22;34843;48.744;8.958;2023-10-31T11:45:36;14.30;99.90
3202;DHT22;34843;48.744;8.958;2023-10-31T11:48:07;14.00;99.90
3202;DHT22;34843;48.744;8.958;2023-10-31T11:50:34;13.90;99.90
3202;DHT22;34843;48.744;8.958;2023-10-31T11:53:11;13.70;99.90
3202;DHT22;34843;48.744;8.958;2023-10-31T11:55:43;13.50;99.90
3202;DHT22;34843;48.744;8.958;2023-10-31T11:58:35;13.40;99.90
3202;DHT22;34843;48.744;8.958;2023-10-31T12:01:03;13.40;99.90
3202;DHT22;34843;48.744;8.958;2023-10-31T12:03:42;13.40;99.90
3202;DHT22;34843;48.744;8.958;2023-10-31T12:06:09;13.40;99.90
3202;DHT22;34843;48.744;8.958;2023-10-31T12:08:38;13.30;99.90
3202;DHT22;34843;48.744;8.958;2023-10-31T12:13:30;13.30;99.90
3202;DHT22;34843;48.744;8.958;2023-10-31T12:15:56;13.40;99.90
3202;DHT22;34843;48.744;8.958;2023-10-31T12:18:22;13.50;99.90
3202;DHT22;34843;48.744;8.958;2023-10-31T12:20:48;13.50;99.90
3202;DHT22;34843;48.744;8.958;2023-10-31T12:23:14;13.40;99.90
3202;DHT22;34843;48.744;8.958;2023-10-31T12:25:47;13.30;99.90
3202;DHT22;34843;48.744;8.958;2023-10-31T12:28:20;13.10;99.90
3202;DHT22;34843;48.744;8.958;2023-10-31T12:30:47;13.00;99.90
3202;DHT22;34843;48.744;8.958;2023-10-31T12:33:13;13.00;99.90
3202;DHT22;34843;48.744;8.958;2023-10-31T12:35:39;13.00;99.90
3202;DHT22;34843;48.744;8.958;2023-10-31T12:38:06;13.00;99.90
3202;DHT22;34843;48.744;8.958;2023-10-31T12:40:31;13.10;99.90
3202;DHT22;34843;48.744;8.958;2023-10-31T12:42:58;13.10;99.90
3202;DHT22;34843;48.744;8.958;2023-10-31T12:45:24;13.10;99.90
3202;DHT22;34843;48.744;8.958;2023-10-31T12:48:09;13.00;99.90
3202;DHT22;34843;48.744;8.958;2023-10-31T12:50:36;13.00;99.90
3202;DHT22;34843;48.744;8.958;2023-10-31T12:53:03;13.10;99.90
3202;DHT22;34843;48.744;8.958;2023-10-31T12:55:30;13.30;99.90
3202;DHT22;34843;48.744;8.958;2023-10-31T12:57:57;13.60;99.90
3202;DHT22;34843;48.744;8.958;2023-10-31T13:00:33;14.00;99.90
3202;DHT22;34843;48.744;8.958;2023-10-31T13:03:07;14.20;99.90
3202;DHT22;34843;48.744;8.958;2023-10-31T13:05:37;14.40;99.90
3202;DHT22;34843;48.744;8.958;2023-10-31T13:08:13;14.40;99.90
3202;DHT22;34843;48.744;8.958;2023-10-31T13:10:39;14.30;99.90
3202;DHT22;34843;48.744;8.958;2023-10-31T13:13:04;14.20;99.90
3202;DHT22;34843;48.744;8.958;2023-10-31T13:15:30;14.20;99.90
3202;DHT22;34843;48.744;8.958;2023-10-31T13:17:55;14.40;99.90
3202;DHT22;34843;48.744;8.958;2023-10-31T13:20:22;14.60;99.90
3202;DHT22;34843;48.744;8.958;2023-10-31T13:22:48;14.50;99.90
3202;DHT22;34843;48.744;8.958;2023-10-31T13:25:16;14.50;99.90
3202;DHT22;34843;48.744;8.958;2023-10-31T13:27:43;14.40;99.90
3202;DHT22;34843;48.744;8.958;2023-10-31T13:30:10;14.40;99.90
3202;DHT22;34843;48.744;8.958;2023-10-31T13:32:37;14.40;99.90
3202;DHT22;34843;48.744;8.958;2023-10-31T13:35:03;14.40;99.90
3202;DHT22;34843;48.744;8.958;2023-10-31T13:37:28;14.30;99.90
3202;DHT22;34843;48.744;8.958;2023-10-31T13:39:54;14.30;99.90
3202;DHT22;34843;48.744;8.958;2023-10-31T13:42:19;14.30;99.90
3202;DHT22;34843;48.744;8.958;2023-10-31T13:44:45;14.30;99.90
3202;DHT22;34843;48.744;8.958;2023-10-31T13:47:11;14.40;99.90
3202;DHT22;34843;48.744;8.958;2023-10-31T13:49:37;14.20;99.90
3202;DHT22;34843;48.744;8.958;2023-10-31T13:52:03;14.20;99.90
3202;DHT22;34843;48.744;8.958;2023-10-31T13:54:29;14.30;99.90
3202;DHT22;34843;48.744;8.958;2023-10-31T13:56:54;14.20;99.90
3202;DHT22;34843;48.744;8.958;2023-10-31T13:59:20;14.30;99.90
3202;DHT22;34843;48.744;8.958;2023-10-31T14:01:46;14.40;99.90
3202;DHT22;34843;48.744;8.958;2023-10-31T14:04:12;14.30;99.90
3202;DHT22;34843;48.744;8.958;2023-10-31T14:06:41;14.30;99.90
3202;DHT22;34843;48.744;8.958;2023-10-31T14:09:08;14.40;99.90
3202;DHT22;34843;48.744;8.958;2023-10-31T14:11:35;14.50;99.90
3202;DHT22;34843;48.744;8.958;2023-10-31T14:14:01;14.60;99.90
3202;DHT22;34843;48.744;8.958;2023-10-31T14:16:33;14.60;99.90
3202;DHT22;34843;48.744;8.958;2023-10-31T14:18:59;14.60;99.90
3202;DHT22;34843;48.744;8.958;2023-10-31T14:21:24;14.60;99.90
3202;DHT22;34843;48.744;8.958;2023-10-31T14:23:51;14.70;99.90
3202;DHT22;34843;48.744;8.958;2023-10-31T14:26:22;14.80;99.90
3202;DHT22;34843;48.744;8.958;2023-10-31T14:28:48;14.60;99.90
3202;DHT22;34843;48.744;8.958;2023-10-31T14:31:14;14.50;99.90
3202;DHT22;34843;48.744;8.958;2023-10-31T14:33:40;14.30;99.90
3202;DHT22;34843;48.744;8.958;2023-10-31T14:36:07;14.10;99.90
3202;DHT22;34843;48.744;8.958;2023-10-31T14:38:33;14.10;99.90
3202;DHT22;34843;48.744;8.958;2023-10-31T14:40:58;14.00;99.90
3202;DHT22;34843;48.744;8.958;2023-10-31T14:43:24;14.10;99.90
3202;DHT22;34843;48.744;8.958;2023-10-31T14:45:49;13.90;99.90
3202;DHT22;34843;48.744;8.958;2023-10-31T14:48:15;13.80;99.90
3202;DHT22;34843;48.744;8.958;2023-10-31T14:50:40;13.80;99.90
3202;DHT22;34843;48.744;8.958;2023-10-31T14:53:06;13.70;99.90
3202;DHT22;34843;48.744;8.958;2023-10-31T14:55:31;13.60;99.90
3202;DHT22;34843;48.744;8.958;2023-10-31T14:57:57;13.60;99.90
3202;DHT22;34843;48.744;8.958;2023-10-31T15:00:23;13.50;99.90
3202;DHT22;34843;48.744;8.958;2023-10-31T15:02:48;13.40;99.90
3202;DHT22;34843;48.744;8.958;2023-10-31T15:05:14;13.20;99.90
3202;DHT22;34843;48.744;8.958;2023-10-31T15:07:40;13.00;99.90
3202;DHT22;34843;48.744;8.958;2023-10-31T15:10:06;12.90;99.90
3202;DHT22;34843;48.744;8.958;2023-10-31T15:12:32;12.70;99.90
3202;DHT22;34843;48.744;8.958;2023-10-31T15:14:58;12.70;99.90
3202;DHT22;34843;48.744;8.958;2023-10-31T15:17:24;12.60;99.90
3202;DHT22;34843;48.744;8.958;2023-10-31T15:19:49;12.50;99.90
3202;DHT22;34843;48.744;8.958;2023-10-31T15:22:15;12.50;99.90
3202;DHT22;34843;48.744;8.958;2023-10-31T15:24:40;12.50;99.90
3202;DHT22;34843;48.744;8.958;2023-10-31T15:27:06;12.40;99.90
3202;DHT22;34843;48.744;8.958;2023-10-31T15:29:31;12.30;99.90
3202;DHT22;34843;48.744;8.958;2023-10-31T15:31:57;12.20;99.90
3202;DHT22;34843;48.744;8.958;2023-10-31T15:34:22;12.20;99.90
3202;DHT22;34843;48.744;8.958;2023-10-31T15:36:48;12.10;99.90
3202;DHT22;34843;48.744;8.958;2023-10-31T15:39:13;12.10;99.90
3202;DHT22;34843;48.744;8.958;2023-10-31T15:41:39;12.00;99.90
3202;DHT22;34843;48.744;8.958;2023-10-31T15:44:06;12.00;99.90
3202;DHT22;34843;48.744;8.958;2023-10-31T15:46:32;12.00;99.90
3202;DHT22;34843;48.744;8.958;2023-10-31T15:49:00;12.00;99.90
3202;DHT22;34843;48.744;8.958;2023-10-31T15:51:25;12.00;99.90